Time;durP1;ratioP1;P1;durP2;ratioP2;P2;SDS_P1;SDS_P2;PMS_P1;PMS_P2;Temp;Humidity;BMP_temperature;BMP_pressure;BME280_temperature;BME280_humidity;BME280_pressure;Samples;Min_cycle;Max_cycle;Signal;HPM_P1;HPM_P2
2022/07/09 00:01:38;;;;;;;2.80;2.13;;;16.90;99.90;;;;;;5073520;28;20407;-70
2022/07/09 00:04:04;;;;;;;12.73;1.90;;;17.00;99.90;;;;;;5073476;28;20263;-70
2022/07/09 00:06:31;;;;;;;3.63;1.73;;;16.90;99.90;;;;;;5072133;28;20200;-70
2022/07/09 00:08:57;;;;;;;3.00;2.30;;;16.90;99.90;;;;;;5073589;28;20189;-69
2022/07/09 00:11:23;;;;;;;3.80;3.50;;;16.90;99.90;;;;;;5071860;28;20408;-70
2022/07/09 00:13:49;;;;;;;8.63;2.80;;;16.90;99.90;;;;;;5073185;28;20514;-70
2022/07/09 00:16:15;;;;;;;3.27;2.37;;;16.90;99.90;;;;;;5073457;28;20158;-70
2022/07/09 00:18:40;;;;;;;2.83;2.57;;;16.80;99.90;;;;;;5072221;28;20217;-69
2022/07/09 00:21:06;;;;;;;2.03;1.80;;;16.80;99.90;;;;;;5072355;28;20571;-70
2022/07/09 00:23:32;;;;;;;3.17;2.87;;;16.70;99.90;;;;;;5073830;28;20627;-69
2022/07/09 00:25:57;;;;;;;3.07;2.77;;;16.70;99.90;;;;;;5073233;28;20190;-70
2022/07/09 00:28:23;;;;;;;2.97;1.90;;;16.70;99.90;;;;;;5073374;28;20231;-69
2022/07/09 00:30:49;;;;;;;2.10;1.90;;;16.60;99.90;;;;;;5072496;28;20300;-70
2022/07/09 00:33:14;;;;;;;3.40;1.87;;;16.60;99.90;;;;;;5073055;28;20154;-70
2022/07/09 00:35:40;;;;;;;2.03;1.83;;;16.60;99.90;;;;;;5071466;28;20615;-70
2022/07/09 00:38:05;;;;;;;2.03;1.70;;;16.60;99.90;;;;;;5073138;28;20166;-70
2022/07/09 00:40:31;;;;;;;1.87;1.77;;;16.50;99.90;;;;;;5072263;28;20162;-70
2022/07/09 00:42:57;;;;;;;1.73;1.50;;;16.40;99.90;;;;;;5073243;28;20170;-70
2022/07/09 00:45:22;;;;;;;2.40;1.83;;;16.40;99.90;;;;;;5072872;28;20170;-70
2022/07/09 00:47:48;;;;;;;1.90;1.63;;;16.40;99.90;;;;;;5070401;28;20170;-70
2022/07/09 00:50:14;;;;;;;2.07;1.87;;;16.30;99.90;;;;;;5071257;28;20260;-69
2022/07/09 00:52:41;;;;;;;5.13;2.60;;;16.30;99.90;;;;;;5071216;28;20548;-70
2022/07/09 00:55:08;;;;;;;3.03;1.87;;;16.30;99.90;;;;;;5070934;28;20411;-69
2022/07/09 00:57:34;;;;;;;2.10;1.90;;;16.20;99.90;;;;;;5070283;28;20435;-70
2022/07/09 01:00:00;;;;;;;2.63;2.00;;;16.10;99.90;;;;;;5071260;28;20439;-69
2022/07/09 01:02:26;;;;;;;2.13;2.03;;;16.00;99.90;;;;;;5071258;28;20401;-69
2022/07/09 01:04:52;;;;;;;2.77;1.87;;;16.00;99.90;;;;;;5069992;28;20489;-69
2022/07/09 01:07:18;;;;;;;3.33;2.17;;;16.00;99.90;;;;;;5069953;28;20404;-70
2022/07/09 01:09:44;;;;;;;2.10;2.00;;;16.00;99.90;;;;;;5071591;28;20190;-69
2022/07/09 01:12:09;;;;;;;6.43;2.20;;;15.90;99.90;;;;;;5072839;28;20485;-70
2022/07/09 01:14:35;;;;;;;2.40;2.17;;;15.90;99.90;;;;;;5071214;28;20412;-69
2022/07/09 01:17:03;;;;;;;3.00;2.70;;;15.90;99.90;;;;;;5072520;28;20158;-69
2022/07/09 01:19:30;;;;;;;3.17;2.60;;;15.90;99.90;;;;;;5073192;28;20194;-70
2022/07/09 01:21:56;;;;;;;2.90;2.57;;;15.90;99.90;;;;;;5072844;28;20412;-70
2022/07/09 01:24:23;;;;;;;7.90;2.80;;;15.80;99.90;;;;;;5072383;28;20408;-70
2022/07/09 01:26:51;;;;;;;2.83;2.63;;;15.80;99.90;;;;;;5075457;28;20504;-70
2022/07/09 01:29:16;;;;;;;4.50;3.20;;;15.80;99.90;;;;;;5074775;28;20860;-71
2022/07/09 01:31:42;;;;;;;2.30;2.10;;;15.70;99.90;;;;;;5076175;28;20405;-70
2022/07/09 01:34:08;;;;;;;2.10;1.90;;;15.70;99.90;;;;;;5075038;28;20166;-71
2022/07/09 01:36:33;;;;;;;2.67;2.47;;;15.60;99.90;;;;;;5075683;28;20635;-71
2022/07/09 01:38:59;;;;;;;4.00;2.90;;;15.60;99.90;;;;;;5073019;28;20221;-71
2022/07/09 01:41:25;;;;;;;2.97;1.87;;;15.60;99.90;;;;;;5074404;28;20631;-70
2022/07/09 01:43:50;;;;;;;3.70;3.20;;;15.60;99.90;;;;;;5074335;28;20221;-70
2022/07/09 01:46:16;;;;;;;2.50;2.30;;;15.60;99.90;;;;;;5073937;28;20508;-70
2022/07/09 01:48:42;;;;;;;3.00;2.70;;;15.60;99.90;;;;;;5074135;28;20687;-71
2022/07/09 01:51:09;;;;;;;2.60;2.40;;;15.60;99.90;;;;;;5074144;28;20201;-71
2022/07/09 01:53:35;;;;;;;2.93;2.63;;;15.50;99.90;;;;;;5074050;28;20944;-70
2022/07/09 01:56:05;;;;;;;3.70;2.20;;;15.50;99.90;;;;;;5074063;28;20913;-70
2022/07/09 01:58:31;;;;;;;3.97;2.70;;;15.60;99.90;;;;;;5073966;28;20419;-70
2022/07/09 02:00:57;;;;;;;3.03;2.73;;;15.50;99.90;;;;;;5074036;28;20401;-70
2022/07/09 02:03:22;;;;;;;3.10;2.40;;;15.50;99.90;;;;;;5072632;28;20265;-71
2022/07/09 02:05:48;;;;;;;4.60;2.93;;;15.50;99.90;;;;;;5072329;28;20174;-70
2022/07/09 02:08:13;;;;;;;2.73;2.50;;;15.50;99.90;;;;;;5073907;28;20588;-70
2022/07/09 02:10:39;;;;;;;2.33;2.13;;;15.50;99.90;;;;;;5073729;28;20216;-71
2022/07/09 02:13:05;;;;;;;3.53;2.20;;;15.60;99.90;;;;;;5073882;28;20171;-71
2022/07/09 02:15:31;;;;;;;5.80;3.43;;;15.60;99.90;;;;;;5073412;28;20598;-71
2022/07/09 02:17:56;;;;;;;5.70;2.43;;;15.60;99.90;;;;;;5073795;28;20412;-71
2022/07/09 02:20:22;;;;;;;3.27;2.83;;;15.50;99.90;;;;;;5072542;28;20693;-70
2022/07/09 02:22:48;;;;;;;2.17;1.90;;;15.50;99.90;;;;;;5072415;28;20249;-71
2022/07/09 02:25:13;;;;;;;3.57;1.93;;;15.50;99.90;;;;;;5073267;28;20175;-70
2022/07/09 02:27:39;;;;;;;3.73;3.00;;;15.50;99.90;;;;;;5072259;28;20209;-70
2022/07/09 02:30:05;;;;;;;4.50;2.47;;;15.50;99.90;;;;;;5073287;28;20198;-70
2022/07/09 02:32:30;;;;;;;3.00;2.70;;;15.50;99.90;;;;;;5073403;28;20188;-71
2022/07/09 02:34:56;;;;;;;13.97;2.70;;;15.60;99.90;;;;;;5071877;28;20420;-71
2022/07/09 02:37:21;;;;;;;2.60;2.40;;;15.50;99.90;;;;;;5073229;28;20241;-70
2022/07/09 02:39:47;;;;;;;2.33;2.13;;;15.50;99.90;;;;;;5073210;28;20273;-70
2022/07/09 02:42:13;;;;;;;2.60;2.40;;;15.60;99.90;;;;;;5073245;28;20173;-70
2022/07/09 02:44:38;;;;;;;3.60;3.27;;;15.70;99.90;;;;;;5071515;28;20178;-69
2022/07/09 02:47:04;;;;;;;2.97;2.10;;;15.70;99.90;;;;;;5071969;28;20170;-69
2022/07/09 02:49:29;;;;;;;2.97;2.70;;;15.80;99.90;;;;;;5072881;28;20208;-69
2022/07/09 02:51:57;;;;;;;3.33;2.40;;;15.90;99.90;;;;;;5071700;28;20663;-71
2022/07/09 02:54:23;;;;;;;2.70;2.50;;;16.00;99.90;;;;;;5071355;28;20209;-70
2022/07/09 02:56:48;;;;;;;4.20;2.73;;;16.00;99.90;;;;;;5073001;28;20400;-70
2022/07/09 02:59:14;;;;;;;3.60;3.30;;;16.10;99.90;;;;;;5072807;28;20186;-70
2022/07/09 03:01:40;;;;;;;3.57;2.60;;;16.20;99.90;;;;;;5072797;28;20164;-71
2022/07/09 03:04:05;;;;;;;2.70;2.50;;;16.20;99.90;;;;;;5071739;28;20172;-70
2022/07/09 03:06:31;;;;;;;4.37;3.07;;;16.40;99.90;;;;;;5072537;28;20212;-71
2022/07/09 03:08:56;;;;;;;4.00;3.07;;;16.50;99.90;;;;;;5071463;28;20182;-70
2022/07/09 03:11:23;;;;;;;3.50;3.23;;;16.60;99.90;;;;;;5072295;28;20285;-70
2022/07/09 03:13:48;;;;;;;3.60;3.30;;;16.70;99.90;;;;;;5072587;28;20484;-71
2022/07/09 03:16:14;;;;;;;3.20;2.90;;;16.80;99.90;;;;;;5071139;28;20177;-71
2022/07/09 03:18:39;;;;;;;4.30;3.30;;;16.90;99.90;;;;;;5072420;28;20190;-70
2022/07/09 03:21:05;;;;;;;4.87;3.40;;;16.90;99.90;;;;;;5072483;28;20249;-70
2022/07/09 03:23:31;;;;;;;3.93;3.17;;;17.00;99.90;;;;;;5072428;28;20167;-71
2022/07/09 03:25:56;;;;;;;3.30;3.00;;;17.00;99.90;;;;;;5072159;28;20754;-71
2022/07/09 03:28:23;;;;;;;3.87;3.10;;;17.00;99.90;;;;;;5072314;28;20178;-70
2022/07/09 03:30:48;;;;;;;4.63;3.83;;;17.10;99.90;;;;;;5070950;28;20608;-70
2022/07/09 03:33:14;;;;;;;4.67;4.20;;;17.10;99.90;;;;;;5072256;28;20674;-70
2022/07/09 03:35:39;;;;;;;3.87;3.40;;;17.20;99.90;;;;;;5071956;28;20190;-70
2022/07/09 03:38:05;;;;;;;2.93;2.60;;;17.30;99.90;;;;;;5072214;28;20165;-71
2022/07/09 03:40:31;;;;;;;5.13;2.90;;;17.30;99.90;;;;;;5072176;28;20243;-71
2022/07/09 03:42:56;;;;;;;4.30;3.83;;;17.30;99.90;;;;;;5071905;28;20166;-70
2022/07/09 03:45:22;;;;;;;4.40;4.00;;;17.40;99.90;;;;;;5071527;28;20585;-70
2022/07/09 03:47:48;;;;;;;3.60;3.13;;;17.40;99.90;;;;;;5071425;28;20166;-71
2022/07/09 03:50:14;;;;;;;4.60;3.97;;;17.40;99.90;;;;;;5071903;28;20225;-71
2022/07/09 03:52:39;;;;;;;3.70;3.10;;;17.40;99.90;;;;;;5070910;28;20463;-72
2022/07/09 03:55:06;;;;;;;3.87;3.57;;;17.40;99.90;;;;;;5071543;28;20415;-71
2022/07/09 03:57:31;;;;;;;5.90;3.60;;;17.40;99.90;;;;;;5071935;28;20162;-71
2022/07/09 03:59:57;;;;;;;3.60;3.30;;;17.30;99.90;;;;;;5070601;28;20428;-70
2022/07/09 04:02:23;;;;;;;3.87;3.27;;;17.30;99.90;;;;;;5071982;28;20170;-71
2022/07/09 04:04:48;;;;;;;6.17;3.70;;;17.20;99.90;;;;;;5071657;28;20166;-70
2022/07/09 04:07:14;;;;;;;5.00;4.07;;;17.20;99.90;;;;;;5070697;28;20173;-70
2022/07/09 04:09:40;;;;;;;4.50;4.10;;;17.10;99.90;;;;;;5071654;28;20204;-70
2022/07/09 04:12:06;;;;;;;10.00;4.50;;;17.10;99.90;;;;;;5071730;28;20924;-70
2022/07/09 04:14:32;;;;;;;5.03;3.60;;;17.10;99.90;;;;;;5069920;28;20407;-70
2022/07/09 04:16:57;;;;;;;5.73;4.30;;;17.10;99.90;;;;;;5072346;28;20400;-70
2022/07/09 04:19:23;;;;;;;4.87;4.13;;;17.00;99.90;;;;;;5073794;28;20182;-70
2022/07/09 04:21:48;;;;;;;4.27;3.97;;;17.00;99.90;;;;;;5072686;28;20174;-70
2022/07/09 04:24:15;;;;;;;3.97;3.60;;;17.00;99.90;;;;;;5072073;28;20177;-70
2022/07/09 04:26:41;;;;;;;6.30;5.07;;;17.00;99.90;;;;;;5071880;28;20257;-70
2022/07/09 04:29:07;;;;;;;4.97;4.03;;;17.00;99.90;;;;;;5073816;28;20433;-70
2022/07/09 04:31:32;;;;;;;7.63;4.53;;;17.00;99.90;;;;;;5073425;28;20500;-70
2022/07/09 04:33:58;;;;;;;6.00;3.87;;;17.00;99.90;;;;;;5073842;28;20158;-70
2022/07/09 04:36:24;;;;;;;6.97;4.87;;;17.10;99.90;;;;;;5071577;28;20163;-69
2022/07/09 04:38:49;;;;;;;6.70;4.90;;;17.00;99.90;;;;;;5071618;28;20225;-70
2022/07/09 04:41:15;;;;;;;6.40;5.13;;;17.10;99.90;;;;;;5071492;28;20162;-69
2022/07/09 04:43:40;;;;;;;15.73;6.43;;;17.10;99.90;;;;;;5070254;28;20174;-70
2022/07/09 04:46:06;;;;;;;6.53;5.10;;;17.20;99.90;;;;;;5071227;28;20178;-70
2022/07/09 04:48:31;;;;;;;6.07;4.90;;;17.20;99.90;;;;;;5071561;28;20566;-69
2022/07/09 04:50:57;;;;;;;6.60;4.73;;;17.20;99.90;;;;;;5071325;28;20667;-69
2022/07/09 04:53:22;;;;;;;8.70;5.47;;;17.30;99.90;;;;;;5070077;28;20556;-70
2022/07/09 04:55:48;;;;;;;7.50;5.63;;;17.30;99.90;;;;;;5071115;28;20680;-69
2022/07/09 04:58:14;;;;;;;7.17;5.33;;;17.40;99.90;;;;;;5071351;28;20186;-70
2022/07/09 05:00:39;;;;;;;7.43;5.50;;;17.50;99.90;;;;;;5074256;28;20520;-70
2022/07/09 05:03:05;;;;;;;6.03;4.60;;;17.50;99.90;;;;;;5073912;28;20171;-69
2022/07/09 05:05:31;;;;;;;9.57;6.60;;;17.60;99.90;;;;;;5074848;28;20635;-69
2022/07/09 05:07:56;;;;;;;11.43;7.00;;;17.60;99.90;;;;;;5073567;28;20730;-69
2022/07/09 05:10:22;;;;;;;7.10;5.33;;;17.70;99.90;;;;;;5074851;28;20260;-70
2022/07/09 05:12:47;;;;;;;8.07;5.83;;;17.80;99.90;;;;;;5075030;28;20166;-70
2022/07/09 05:15:13;;;;;;;7.73;5.67;;;17.90;99.90;;;;;;5074675;28;20647;-69
2022/07/09 05:17:40;;;;;;;8.23;5.90;;;18.00;99.90;;;;;;5075060;28;20220;-70
2022/07/09 05:20:07;;;;;;;9.00;6.30;;;18.10;99.90;;;;;;5074845;28;20431;-69
2022/07/09 05:22:34;;;;;;;6.17;5.13;;;18.20;99.90;;;;;;5074836;28;20396;-69
2022/07/09 05:25:01;;;;;;;6.23;5.30;;;18.30;99.90;;;;;;5074695;28;20409;-71
2022/07/09 05:27:28;;;;;;;7.70;5.30;;;18.40;99.90;;;;;;5076220;28;20400;-70
2022/07/09 05:29:54;;;;;;;7.70;6.57;;;18.50;99.90;;;;;;5076092;28;20526;-70
2022/07/09 05:32:19;;;;;;;6.97;6.30;;;18.50;99.90;;;;;;5076065;28;20405;-70
2022/07/09 05:34:45;;;;;;;8.97;5.60;;;18.60;99.90;;;;;;5074547;28;20431;-70
2022/07/09 05:37:10;;;;;;;6.90;5.17;;;18.80;99.90;;;;;;5074603;28;20662;-70
2022/07/09 05:39:36;;;;;;;18.47;5.80;;;19.00;99.90;;;;;;5074532;28;20198;-70
2022/07/09 05:42:02;;;;;;;6.43;4.83;;;19.20;99.90;;;;;;5074505;28;20272;-70
2022/07/09 05:44:27;;;;;;;5.90;5.30;;;19.30;99.90;;;;;;5074158;28;20197;-70
2022/07/09 05:46:53;;;;;;;10.50;5.90;;;19.40;99.90;;;;;;5074377;28;20167;-70
2022/07/09 05:49:18;;;;;;;6.43;5.80;;;19.50;99.90;;;;;;5074248;28;20186;-70
2022/07/09 05:51:44;;;;;;;5.00;4.60;;;19.70;99.90;;;;;;5074349;28;20167;-70
2022/07/09 05:54:10;;;;;;;5.73;3.80;;;20.00;99.90;;;;;;5074160;28;20182;-71
2022/07/09 05:56:36;;;;;;;5.87;4.77;;;20.40;99.90;;;;;;5072528;28;20166;-71
2022/07/09 05:59:03;;;;;;;6.23;4.00;;;20.70;99.90;;;;;;5074222;28;20178;-70
2022/07/09 06:01:29;;;;;;;4.20;3.33;;;21.20;99.90;;;;;;5074254;28;20411;-70
2022/07/09 06:03:54;;;;;;;4.03;3.67;;;21.60;99.90;;;;;;5074020;28;20412;-70
2022/07/09 06:06:20;;;;;;;4.97;4.10;;;22.00;99.90;;;;;;5072429;28;20177;-70
2022/07/09 06:08:45;;;;;;;4.40;4.03;;;22.20;99.90;;;;;;5073869;28;20178;-71
2022/07/09 06:11:12;;;;;;;8.90;4.47;;;22.50;99.90;;;;;;5071870;28;20739;-71
2022/07/09 06:13:37;;;;;;;8.50;4.77;;;22.70;99.90;;;;;;5074879;28;20659;-70
2022/07/09 06:16:03;;;;;;;4.77;4.37;;;23.10;99.90;;;;;;5073424;28;20790;-71
2022/07/09 06:18:28;;;;;;;4.70;4.30;;;23.60;99.90;;;;;;5075159;28;20182;-71
2022/07/09 06:20:54;;;;;;;4.87;4.20;;;23.90;99.90;;;;;;5073846;28;20176;-71
2022/07/09 06:23:21;;;;;;;4.60;4.20;;;24.60;99.90;;;;;;5074784;28;20170;-71
2022/07/09 06:25:46;;;;;;;7.23;4.43;;;25.00;99.90;;;;;;5074788;28;20681;-72
2022/07/09 06:28:12;;;;;;;8.40;4.00;;;25.50;99.90;;;;;;5074044;28;20423;-72
2022/07/09 06:30:38;;;;;;;4.93;4.00;;;26.10;99.90;;;;;;5072822;28;20194;-72
2022/07/09 06:33:03;;;;;;;4.93;3.87;;;26.60;99.90;;;;;;5073655;28;20249;-71
2022/07/09 06:35:30;;;;;;;4.70;3.80;;;27.30;99.90;;;;;;5073321;28;20243;-72
2022/07/09 06:37:56;;;;;;;5.20;3.53;;;27.80;99.90;;;;;;5071982;28;20284;-72
2022/07/09 06:40:22;;;;;;;3.63;3.33;;;28.10;99.90;;;;;;5072498;28;20432;-72
2022/07/09 06:42:47;;;;;;;9.90;3.87;;;28.60;99.40;;;;;;5072033;28;20181;-73
2022/07/09 06:45:14;;;;;;;3.73;3.33;;;29.10;94.80;;;;;;5073417;28;20207;-73
2022/07/09 06:47:40;;;;;;;2.83;2.63;;;30.00;90.10;;;;;;5073656;28;20167;-72
2022/07/09 06:50:06;;;;;;;3.10;2.80;;;30.60;80.20;;;;;;5073302;28;20456;-71
2022/07/09 06:52:32;;;;;;;2.80;2.53;;;31.00;77.00;;;;;;5072352;28;20477;-73
2022/07/09 06:54:57;;;;;;;3.70;2.97;;;31.60;71.20;;;;;;5072134;28;20166;-73
2022/07/09 06:57:23;;;;;;;4.00;3.03;;;31.70;68.80;;;;;;5073913;28;20488;-73
2022/07/09 06:59:49;;;;;;;3.20;2.60;;;32.10;64.00;;;;;;5073567;28;20197;-72
2022/07/09 07:02:17;;;;;;;3.87;2.20;;;32.60;60.40;;;;;;5073662;28;20194;-72
2022/07/09 07:04:42;;;;;;;3.07;2.30;;;32.90;56.80;;;;;;5072824;28;20200;-73
2022/07/09 07:07:08;;;;;;;3.30;3.00;;;33.50;55.90;;;;;;5072897;28;20447;-72
2022/07/09 07:09:34;;;;;;;2.83;2.63;;;33.90;53.60;;;;;;5072812;28;20198;-73
2022/07/09 07:11:59;;;;;;;2.10;1.90;;;34.60;52.60;;;;;;5073230;28;20558;-73
2022/07/09 07:14:25;;;;;;;2.20;1.87;;;34.90;50.70;;;;;;5072691;28;20522;-73
2022/07/09 07:16:52;;;;;;;3.13;2.83;;;35.50;49.90;;;;;;5072811;28;20255;-73
2022/07/09 07:19:20;;;;;;;3.27;2.10;;;35.40;48.20;;;;;;5072782;28;20186;-73
2022/07/09 07:21:46;;;;;;;1.73;1.63;;;34.80;48.10;;;;;;5071407;28;20969;-73
2022/07/09 07:24:13;;;;;;;3.43;1.73;;;34.40;47.60;;;;;;5071639;28;20436;-70
2022/07/09 07:26:38;;;;;;;4.13;1.30;;;33.80;49.40;;;;;;5072750;28;20401;-73
2022/07/09 07:29:04;;;;;;;2.33;1.40;;;33.90;48.80;;;;;;5072495;28;20484;-73
2022/07/09 07:31:29;;;;;;;1.93;1.47;;;34.40;50.30;;;;;;5072777;28;20296;-74
2022/07/09 07:33:55;;;;;;;1.90;1.50;;;35.10;48.60;;;;;;5072714;28;20162;-71
2022/07/09 07:36:20;;;;;;;1.97;1.80;;;35.60;47.70;;;;;;5071301;28;20691;-72
2022/07/09 07:38:46;;;;;;;2.93;2.70;;;36.40;45.80;;;;;;5072584;28;20547;-72
2022/07/09 07:41:12;;;;;;;3.13;2.47;;;36.80;46.10;;;;;;5071334;28;20557;-72
2022/07/09 07:43:38;;;;;;;2.93;1.63;;;37.50;44.90;;;;;;5072926;28;20194;-72
2022/07/09 07:46:04;;;;;;;2.17;1.43;;;38.10;43.30;;;;;;5071269;28;20394;-72
2022/07/09 07:48:30;;;;;;;3.97;1.70;;;38.50;42.60;;;;;;5072640;28;20421;-71
2022/07/09 07:50:56;;;;;;;1.60;1.50;;;38.70;41.20;;;;;;5072642;28;20186;-72
2022/07/09 07:53:22;;;;;;;1.40;1.30;;;39.00;40.90;;;;;;5072339;28;20481;-72
2022/07/09 07:55:48;;;;;;;4.50;1.47;;;39.30;40.50;;;;;;5072157;28;20245;-71
2022/07/09 07:58:13;;;;;;;1.60;1.50;;;39.00;40.10;;;;;;5072213;28;20703;-72
2022/07/09 08:00:39;;;;;;;1.70;1.60;;;39.50;40.10;;;;;;5071043;28;20421;-73
2022/07/09 08:03:05;;;;;;;1.60;1.50;;;39.20;39.10;;;;;;5072652;28;20174;-72
2022/07/09 08:05:30;;;;;;;2.60;1.80;;;39.20;39.50;;;;;;5071063;28;20177;-72
2022/07/09 08:07:56;;;;;;;1.67;1.57;;;39.70;38.70;;;;;;5072734;28;20216;-73
2022/07/09 08:10:22;;;;;;;1.50;1.40;;;39.80;38.20;;;;;;5072467;28;20194;-73
2022/07/09 08:12:47;;;;;;;5.70;2.13;;;40.20;39.10;;;;;;5071597;28;20235;-72
2022/07/09 08:15:13;;;;;;;1.70;1.60;;;40.50;37.30;;;;;;5071800;28;20174;-72
2022/07/09 08:17:38;;;;;;;2.10;1.90;;;40.30;37.70;;;;;;5072086;28;20162;-70
2022/07/09 08:20:05;;;;;;;2.53;1.93;;;39.50;37.90;;;;;;5070705;28;20194;-72
2022/07/09 08:22:31;;;;;;;1.63;1.43;;;39.00;38.10;;;;;;5070715;28;20220;-71
2022/07/09 08:24:56;;;;;;;6.57;5.97;;;37.70;37.80;;;;;;5071578;28;20883;-72
2022/07/09 08:27:22;;;;;;;2.10;1.90;;;37.70;39.00;;;;;;5071974;28;20162;-71
2022/07/09 08:29:50;;;;;;;3.40;1.60;;;36.80;40.70;;;;;;5070460;28;20208;-71
2022/07/09 08:32:16;;;;;;;2.33;1.83;;;36.50;40.30;;;;;;5072036;28;20181;-71
2022/07/09 08:34:41;;;;;;;2.17;1.57;;;35.90;41.20;;;;;;5072010;28;20400;-70
2022/07/09 08:37:07;;;;;;;2.33;1.47;;;34.70;43.10;;;;;;5074839;28;20201;-71
2022/07/09 08:39:33;;;;;;;2.80;1.97;;;34.60;43.90;;;;;;5075812;28;20185;-72
2022/07/09 08:41:59;;;;;;;1.53;1.43;;;35.00;43.60;;;;;;5075755;28;20252;-72
2022/07/09 08:44:33;;;;;;;3.47;1.60;;;35.10;43.40;;;;;;5075665;28;20393;-72
2022/07/09 08:47:00;;;;;;;2.00;1.90;;;35.10;42.40;;;;;;5075750;28;20399;-72
2022/07/09 08:49:28;;;;;;;1.67;1.40;;;34.40;43.30;;;;;;5075481;28;20416;-72
2022/07/09 08:51:55;;;;;;;1.63;1.30;;;34.10;44.90;;;;;;5074294;28;20411;-70
2022/07/09 08:54:22;;;;;;;1.63;1.50;;;33.90;45.30;;;;;;5075535;28;20404;-72
2022/07/09 08:56:47;;;;;;;1.80;1.50;;;34.10;45.80;;;;;;5075553;28;20399;-71
2022/07/09 08:59:13;;;;;;;1.50;1.40;;;34.10;45.70;;;;;;5074149;28;20420;-72
2022/07/09 09:01:38;;;;;;;2.10;1.90;;;33.90;45.00;;;;;;5075490;28;20178;-71
2022/07/09 09:04:05;;;;;;;1.97;1.77;;;34.00;46.20;;;;;;5075475;28;20176;-71
2022/07/09 09:06:39;;;;;;;1.73;1.50;;;34.50;45.20;;;;;;5074912;28;20205;-72
2022/07/09 09:09:08;;;;;;;1.70;1.60;;;35.00;43.80;;;;;;5074803;28;20820;-72
2022/07/09 09:11:36;;;;;;;1.53;1.43;;;35.10;43.20;;;;;;5075298;28;20444;-73
2022/07/09 09:14:02;;;;;;;1.37;1.27;;;35.40;42.00;;;;;;5075251;28;20476;-72
2022/07/09 09:16:28;;;;;;;1.43;1.33;;;35.60;42.90;;;;;;5073564;28;20437;-73
2022/07/09 09:18:53;;;;;;;1.80;1.50;;;36.20;41.90;;;;;;5074955;28;20952;-72
2022/07/09 09:21:22;;;;;;;1.93;1.37;;;36.60;40.10;;;;;;5075119;28;20174;-72
2022/07/09 09:23:49;;;;;;;3.40;2.20;;;37.40;40.90;;;;;;5075223;28;20193;-72
2022/07/09 09:26:23;;;;;;;1.60;1.50;;;39.10;39.10;;;;;;5075019;28;20841;-72
2022/07/09 09:28:55;;;;;;;1.90;1.80;;;40.50;37.00;;;;;;5075197;28;21023;-72
2022/07/09 09:31:26;;;;;;;2.00;1.50;;;41.30;36.60;;;;;;5075167;28;20994;-72
2022/07/09 09:33:54;;;;;;;1.30;1.20;;;41.90;36.10;;;;;;5073852;28;20386;-73
2022/07/09 09:36:28;;;;;;;1.77;1.67;;;42.40;34.10;;;;;;5074741;28;20407;-73
2022/07/09 09:38:53;;;;;;;1.40;1.30;;;42.90;31.70;;;;;;5074560;28;20398;-72
2022/07/09 09:41:24;;;;;;;1.73;1.63;;;42.00;31.60;;;;;;5074466;28;20882;-73
2022/07/09 09:43:53;;;;;;;1.50;1.40;;;41.00;32.50;;;;;;5074477;28;20174;-73
2022/07/09 09:46:18;;;;;;;1.60;1.40;;;41.50;34.50;;;;;;5073152;28;20383;-74
2022/07/09 09:48:44;;;;;;;1.97;1.50;;;42.30;34.40;;;;;;5073241;28;20414;-73
2022/07/09 09:51:13;;;;;;;1.80;1.53;;;42.60;32.90;;;;;;5074398;28;20197;-73
2022/07/09 09:53:40;;;;;;;1.50;1.40;;;43.10;32.70;;;;;;5074411;28;20185;-73
2022/07/09 09:56:06;;;;;;;1.53;1.43;;;43.70;32.20;;;;;;5074121;28;20951;-74
2022/07/09 09:58:32;;;;;;;1.40;1.30;;;43.70;30.70;;;;;;5073167;28;20432;-73
2022/07/09 10:00:58;;;;;;;4.10;3.20;;;42.20;31.00;;;;;;5073014;28;20784;-73
2022/07/09 10:03:25;;;;;;;2.37;2.17;;;41.20;32.90;;;;;;5074328;28;20483;-73
2022/07/09 10:05:51;;;;;;;2.07;1.43;;;40.60;34.00;;;;;;5072895;28;20190;-73
2022/07/09 10:08:17;;;;;;;1.70;1.30;;;40.00;34.50;;;;;;5074038;28;20834;-72
2022/07/09 10:10:51;;;;;;;1.30;1.20;;;38.60;36.40;;;;;;5074019;28;20535;-73
2022/07/09 10:13:21;;;;;;;1.80;1.70;;;37.90;36.20;;;;;;5074378;28;20160;-73
2022/07/09 10:15:50;;;;;;;6.73;6.13;;;37.10;37.30;;;;;;5073984;28;20792;-73
2022/07/09 10:18:19;;;;;;;1.97;1.50;;;37.50;37.30;;;;;;5073885;28;20398;-72
2022/07/09 10:20:45;;;;;;;1.67;1.27;;;37.50;36.70;;;;;;5074149;28;20391;-73
2022/07/09 10:23:23;;;;;;;1.40;1.20;;;37.50;38.30;;;;;;5073878;28;20413;-72
2022/07/09 10:25:52;;;;;;;1.53;1.30;;;37.60;37.80;;;;;;5073603;28;20208;-73
2022/07/09 10:28:19;;;;;;;1.40;1.30;;;37.20;37.20;;;;;;5073718;28;20913;-71
2022/07/09 10:30:46;;;;;;;1.47;1.20;;;36.70;37.00;;;;;;5074027;28;20459;-72
2022/07/09 10:33:23;;;;;;;1.80;1.47;;;36.50;38.90;;;;;;5072488;28;20439;-71
2022/07/09 10:35:51;;;;;;;1.57;1.47;;;37.00;37.90;;;;;;5073554;28;20454;-72
2022/07/09 10:38:17;;;;;;;1.57;1.47;;;37.20;37.00;;;;;;5072043;28;20908;-71
2022/07/09 10:41:03;;;;;;;1.60;1.40;;;36.80;38.30;;;;;;5073440;28;20408;-72
2022/07/09 10:43:46;;;;;;;1.33;1.07;;;36.70;39.00;;;;;;5072214;28;20503;-72
2022/07/09 10:46:13;;;;;;;2.40;1.40;;;37.40;38.30;;;;;;5071931;28;20469;-73
2022/07/09 10:48:39;;;;;;;1.30;1.20;;;38.10;38.10;;;;;;5071980;28;20407;-72
2022/07/09 10:51:05;;;;;;;2.17;1.30;;;38.80;35.80;;;;;;5073217;28;20547;-71
2022/07/09 10:53:30;;;;;;;1.40;1.30;;;37.90;35.70;;;;;;5073003;28;20273;-72
2022/07/09 10:55:56;;;;;;;1.10;0.93;;;36.20;37.00;;;;;;5072957;28;20170;-72
2022/07/09 10:58:24;;;;;;;1.27;1.17;;;35.60;38.90;;;;;;5072917;28;20186;-72
2022/07/09 11:01:02;;;;;;;1.10;1.00;;;35.50;38.80;;;;;;5073051;28;20162;-72
2022/07/09 11:03:29;;;;;;;1.60;1.50;;;35.60;38.80;;;;;;5073185;28;20416;-72
2022/07/09 11:05:57;;;;;;;1.63;1.10;;;34.90;39.90;;;;;;5071695;28;20800;-73
2022/07/09 11:08:23;;;;;;;1.40;1.10;;;34.70;42.40;;;;;;5073206;28;20425;-73
2022/07/09 11:10:49;;;;;;;1.40;1.20;;;35.60;41.90;;;;;;5071746;28;20459;-72
2022/07/09 11:13:14;;;;;;;1.90;1.43;;;36.70;39.70;;;;;;5072877;28;20409;-73
2022/07/09 11:15:41;;;;;;;1.30;1.20;;;37.00;38.40;;;;;;5071736;28;20233;-73
2022/07/09 11:18:09;;;;;;;2.10;1.50;;;37.60;39.20;;;;;;5073340;28;20216;-73
2022/07/09 11:20:39;;;;;;;1.40;1.30;;;38.60;38.60;;;;;;5072698;28;20432;-72
2022/07/09 11:23:05;;;;;;;2.00;1.80;;;39.10;36.70;;;;;;5072779;28;20424;-73
2022/07/09 11:25:31;;;;;;;3.40;2.13;;;38.10;37.10;;;;;;5070993;28;20932;-73
2022/07/09 11:27:58;;;;;;;1.50;1.40;;;37.60;38.00;;;;;;5072768;28;20205;-72
2022/07/09 11:30:24;;;;;;;2.80;1.30;;;37.00;38.30;;;;;;5072704;28;20198;-73
2022/07/09 11:32:50;;;;;;;1.50;1.40;;;36.10;38.90;;;;;;5072662;28;20466;-72
2022/07/09 11:35:28;;;;;;;1.40;1.30;;;35.40;40.60;;;;;;5070900;28;20433;-71
2022/07/09 11:37:59;;;;;;;2.10;1.30;;;34.60;41.00;;;;;;5070918;28;20415;-72
2022/07/09 11:40:25;;;;;;;1.67;1.20;;;34.70;42.30;;;;;;5072761;28;20416;-72
2022/07/09 11:42:51;;;;;;;1.73;1.63;;;35.40;41.60;;;;;;5071085;28;20455;-73
2022/07/09 11:45:21;;;;;;;1.87;1.77;;;36.90;41.00;;;;;;5072231;28;20163;-73
2022/07/09 11:47:47;;;;;;;3.40;2.00;;;38.40;38.30;;;;;;5072372;28;20428;-73
2022/07/09 11:50:15;;;;;;;1.60;1.50;;;38.70;36.40;;;;;;5072086;28;20423;-73
2022/07/09 11:52:49;;;;;;;1.47;1.37;;;38.80;36.40;;;;;;5071992;28;20214;-71
2022/07/09 11:55:19;;;;;;;2.37;2.17;;;39.10;35.90;;;;;;5070735;28;20412;-73
2022/07/09 11:57:56;;;;;;;2.07;1.87;;;39.30;36.80;;;;;;5072134;28;20400;-72
2022/07/09 12:00:27;;;;;;;1.73;1.53;;;39.50;35.00;;;;;;5072090;28;20506;-73
2022/07/09 12:02:57;;;;;;;1.83;1.70;;;39.20;35.70;;;;;;5072113;28;20399;-72
2022/07/09 12:05:36;;;;;;;1.77;1.67;;;38.50;36.30;;;;;;5071907;28;20413;-73
2022/07/09 12:08:07;;;;;;;1.87;1.77;;;37.10;37.60;;;;;;5071975;28;20379;-72
2022/07/09 12:10:38;;;;;;;1.63;1.53;;;35.90;38.30;;;;;;5071345;28;20443;-72
2022/07/09 12:13:04;;;;;;;1.60;1.50;;;35.00;40.20;;;;;;5072114;28;20431;-72
2022/07/09 12:15:30;;;;;;;2.67;2.20;;;34.90;41.40;;;;;;5071537;28;20401;-73
2022/07/09 12:17:58;;;;;;;2.33;2.10;;;34.70;41.30;;;;;;5070232;28;20461;-72
2022/07/09 12:20:26;;;;;;;2.33;2.13;;;33.80;42.00;;;;;;5071831;28;20404;-71
2022/07/09 12:22:52;;;;;;;2.27;1.77;;;33.30;42.80;;;;;;5071943;28;20805;-71
2022/07/09 12:25:18;;;;;;;2.37;1.80;;;33.20;44.60;;;;;;5071661;28;21118;-72
2022/07/09 12:27:44;;;;;;;2.20;2.00;;;34.00;43.70;;;;;;5071867;28;20400;-71
2022/07/09 12:30:11;;;;;;;1.63;1.53;;;34.70;42.80;;;;;;5072234;28;20971;-73
2022/07/09 12:32:37;;;;;;;2.67;2.20;;;35.60;43.00;;;;;;5071939;28;20411;-72
2022/07/09 12:35:03;;;;;;;2.13;2.03;;;36.20;41.50;;;;;;5071445;28;20405;-71
2022/07/09 12:37:28;;;;;;;2.60;2.13;;;36.60;40.60;;;;;;5071812;28;20162;-72
2022/07/09 12:39:54;;;;;;;2.03;1.93;;;36.80;39.90;;;;;;5071702;28;20432;-71
2022/07/09 12:42:20;;;;;;;2.17;1.97;;;36.70;40.10;;;;;;5073312;28;20249;-72